createdAt,value
2023-01-03T00:00:15.549Z,137.13
2023-01-03T00:01:15.467Z,137.13
2023-01-03T00:02:15.479Z,138.26
2023-01-03T00:03:15.452Z,138.60
2023-01-03T00:04:15.486Z,139.18
2023-01-03T00:05:15.425Z,138.37
2023-01-03T00:06:15.389Z,138.72
2023-01-03T00:07:15.392Z,138.72
2023-01-03T00:08:15.381Z,138.72
2023-01-03T00:09:15.376Z,136.91
2023-01-03T00:10:15.349Z,134.39
2023-01-03T00:11:15.349Z,131.04
2023-01-03T00:12:15.334Z,127.95
2023-01-03T00:13:15.347Z,123.71
2023-01-03T00:14:15.322Z,119.58
2023-01-03T00:15:15.278Z,115.31
2023-01-03T00:16:15.417Z,112.61
2023-01-03T00:17:15.476Z,108.68
2023-01-03T00:18:15.268Z,105.61
2023-01-03T00:19:15.267Z,102.33
2023-01-03T00:20:15.240Z,98.26
2023-01-03T00:21:15.223Z,95.58
2023-01-03T00:22:15.226Z,94.75
2023-01-03T00:23:15.191Z,92.45
2023-01-03T00:24:15.220Z,91.55
2023-01-03T00:25:15.194Z,91.35
2023-01-03T00:26:15.168Z,89.69
2023-01-03T00:27:15.145Z,87.00
2023-01-03T00:28:15.145Z,84.38
2023-01-03T00:29:15.123Z,83.13
2023-01-03T00:30:15.153Z,81.67
2023-01-03T00:31:15.152Z,81.51
2023-01-03T00:32:15.095Z,81.75
2023-01-03T00:33:15.081Z,81.60
2023-01-03T00:34:15.092Z,82.15
2023-01-03T00:35:15.076Z,81.36
2023-01-03T00:36:15.051Z,80.65
2023-01-03T00:37:15.068Z,79.29
2023-01-03T00:38:15.037Z,77.46
2023-01-03T00:39:15.000Z,75.58
2023-01-03T00:40:15.035Z,74.84
2023-01-03T00:41:14.979Z,72.33
2023-01-03T00:42:14.982Z,70.92
2023-01-03T00:43:14.957Z,69.92
2023-01-03T00:44:14.961Z,69.57
2023-01-03T00:45:19.257Z,69.34
2023-01-03T00:46:15.983Z,69.17
2023-01-03T00:47:14.911Z,68.33
2023-01-03T00:48:14.917Z,67.51
2023-01-03T00:49:14.887Z,67.13
2023-01-03T00:50:14.925Z,66.97
2023-01-03T00:51:14.868Z,66.33
2023-01-03T00:52:14.878Z,66.02
2023-01-03T00:53:14.840Z,66.02
2023-01-03T00:54:14.847Z,66.07
2023-01-03T00:55:14.826Z,66.07
2023-01-03T00:56:14.801Z,65.82
2023-01-03T00:57:14.802Z,65.46
2023-01-03T00:58:14.809Z,64.85
2023-01-03T00:59:14.780Z,64.11
2023-01-03T01:00:14.793Z,63.19
2023-01-03T01:01:14.863Z,62.26
2023-01-03T01:02:14.917Z,61.44
2023-01-03T01:03:14.835Z,60.38
2023-01-03T01:04:14.724Z,59.52
2023-01-03T01:05:14.739Z,59.36
2023-01-03T01:06:14.717Z,59.02
2023-01-03T01:07:14.675Z,58.94
2023-01-03T01:08:14.715Z,59.27
2023-01-03T01:09:14.669Z,58.86
2023-01-03T01:10:14.706Z,58.53
2023-01-03T01:11:14.657Z,58.24
2023-01-03T01:12:14.667Z,57.92
2023-01-03T01:13:14.623Z,57.57
2023-01-03T01:14:14.628Z,57.49
2023-01-03T01:15:14.611Z,57.49
2023-01-03T01:16:14.658Z,57.92
2023-01-03T01:17:17.886Z,58.04
2023-01-03T01:18:15.585Z,59.36
2023-01-03T01:19:14.568Z,60.33
2023-01-03T01:20:14.583Z,60.95
2023-01-03T01:21:14.516Z,62.07
2023-01-03T01:22:14.514Z,62.67
2023-01-03T01:23:14.477Z,63.10
2023-01-03T01:24:18.088Z,63.05
2023-01-03T01:25:14.487Z,63.29
2023-01-03T01:26:14.477Z,63.43
2023-01-03T01:27:14.436Z,63.82
2023-01-03T01:28:14.450Z,63.62
2023-01-03T01:29:14.426Z,63.72
2023-01-03T01:30:14.451Z,64.01
2023-01-03T01:31:14.448Z,63.82
2023-01-03T01:32:14.401Z,63.77
2023-01-03T01:33:14.377Z,63.00
2023-01-03T01:34:14.398Z,62.91
2023-01-03T01:35:14.369Z,63.00
2023-01-03T01:36:14.358Z,63.19
2023-01-03T01:37:14.325Z,62.96
2023-01-03T01:38:14.336Z,62.96
2023-01-03T01:39:14.307Z,63.00
2023-01-03T01:40:14.337Z,62.86
2023-01-03T01:41:14.292Z,62.63
2023-01-03T01:42:19.452Z,62.86
2023-01-03T01:43:15.263Z,62.96
2023-01-03T01:44:14.278Z,62.86
2023-01-03T01:45:14.248Z,63.48
2023-01-03T01:46:14.294Z,63.43
2023-01-03T01:47:14.215Z,64.06
2023-01-03T01:48:14.211Z,64.50
2023-01-03T01:49:14.187Z,64.95
2023-01-03T01:50:14.234Z,64.90
2023-01-03T01:51:14.168Z,65.46
2023-01-03T01:52:14.169Z,66.02
2023-01-03T01:53:14.146Z,67.02
2023-01-03T01:54:14.164Z,67.89
2023-01-03T01:55:14.123Z,68.83
2023-01-03T01:56:14.139Z,69.81
2023-01-03T01:57:14.105Z,71.47
2023-01-03T01:58:14.101Z,72.70
2023-01-03T01:59:14.077Z,73.40
2023-01-03T02:00:14.077Z,74.18
2023-01-03T02:01:14.191Z,75.04
2023-01-03T02:02:14.159Z,75.99
2023-01-03T02:03:14.140Z,76.54
2023-01-03T02:04:14.029Z,77.18
2023-01-03T02:05:14.007Z,77.67
2023-01-03T02:06:14.016Z,77.67
2023-01-03T02:07:13.978Z,78.18
2023-01-03T02:08:13.981Z,78.91
2023-01-03T02:09:13.960Z,79.89
2023-01-03T02:10:13.964Z,80.97
2023-01-03T02:11:13.954Z,81.04
2023-01-03T02:12:13.929Z,81.36
2023-01-03T02:13:13.908Z,80.73
2023-01-03T02:14:13.939Z,80.19
2023-01-03T02:15:13.890Z,79.36
2023-01-03T02:16:13.935Z,79.06
2023-01-03T02:17:13.863Z,77.03
2023-01-03T02:18:13.868Z,75.17
2023-01-03T02:19:13.834Z,73.15
2023-01-03T02:20:13.848Z,70.80
2023-01-03T02:21:19.596Z,69.40
2023-01-03T02:22:14.832Z,67.72
2023-01-03T02:23:13.801Z,65.56
2023-01-03T02:24:13.805Z,63.34
2023-01-03T02:25:13.768Z,61.75
2023-01-03T02:26:13.768Z,60.47
2023-01-03T02:27:13.776Z,60.25
2023-01-03T02:28:13.761Z,59.44
2023-01-03T02:29:13.762Z,59.61
2023-01-03T02:30:13.746Z,59.86
2023-01-03T02:31:13.712Z,60.90
2023-01-03T02:32:13.710Z,62.77
2023-01-03T02:33:13.739Z,65.46
2023-01-03T02:34:13.757Z,69.06
2023-01-03T02:35:13.655Z,72.58
2023-01-03T02:36:13.670Z,75.51
2023-01-03T02:37:13.645Z,78.69
2023-01-03T02:38:13.631Z,84.13
2023-01-03T02:39:13.616Z,89.21
2023-01-03T02:40:13.615Z,94.21
2023-01-03T02:41:13.580Z,96.57
2023-01-03T02:42:13.599Z,98.84
2023-01-03T02:43:13.570Z,101.16
2023-01-03T02:44:13.563Z,100.19
2023-01-03T02:45:13.528Z,100.55
2023-01-03T02:46:13.609Z,100.07
2023-01-03T02:47:13.520Z,99.48
2023-01-03T02:48:13.536Z,99.01
2023-01-03T02:49:13.490Z,98.09
2023-01-03T02:50:13.489Z,97.92
2023-01-03T02:51:13.486Z,98.32
2023-01-03T02:52:13.472Z,99.36
2023-01-03T02:53:13.459Z,100.92
2023-01-03T02:54:13.439Z,103.02
2023-01-03T02:55:13.419Z,104.95
2023-01-03T02:56:13.431Z,108.82
2023-01-03T02:57:13.399Z,112.23
2023-01-03T02:58:13.427Z,114.29
2023-01-03T02:59:13.404Z,117.00
2023-01-03T03:00:13.371Z,118.82
2023-01-03T03:01:13.507Z,120.87
2023-01-03T03:02:13.427Z,122.27
2023-01-03T03:03:13.499Z,123.62
2023-01-03T03:04:13.346Z,125.47
2023-01-03T03:05:13.309Z,126.89
2023-01-03T03:06:13.329Z,128.24
2023-01-03T03:07:13.278Z,129.23
2023-01-03T03:08:13.300Z,130.73
2023-01-03T03:09:13.275Z,131.66
2023-01-03T03:10:13.265Z,133.54
2023-01-03T03:11:13.232Z,135.48
2023-01-03T03:12:13.237Z,135.80
2023-01-03T03:13:13.245Z,136.46
2023-01-03T03:14:13.245Z,138.03
2023-01-03T03:15:13.182Z,137.81
2023-01-03T03:16:13.248Z,136.57
2023-01-03T03:17:13.160Z,136.02
2023-01-03T03:18:13.162Z,134.39
2023-01-03T03:19:13.148Z,133.12
2023-01-03T03:20:13.135Z,130.63
2023-01-03T03:21:13.117Z,128.63
2023-01-03T03:22:13.123Z,126.50
2023-01-03T03:23:13.107Z,124.63
2023-01-03T03:24:13.120Z,124.17
2023-01-03T03:25:13.072Z,123.89
2023-01-03T03:26:13.088Z,122.99
2023-01-03T03:27:13.044Z,122.90
2023-01-03T03:28:13.058Z,121.83
2023-01-03T03:29:13.019Z,121.04
2023-01-03T03:30:13.036Z,120.09
2023-01-03T03:31:13.067Z,118.90
2023-01-03T03:32:12.995Z,117.00
2023-01-03T03:33:12.975Z,117.16
2023-01-03T03:34:12.992Z,116.59
2023-01-03T03:35:12.967Z,115.79
2023-01-03T03:36:12.953Z,114.14
2023-01-03T03:37:12.931Z,113.52
2023-01-03T03:38:12.933Z,112.46
2023-01-03T03:39:12.899Z,112.16
2023-01-03T03:40:12.913Z,113.14
2023-01-03T03:41:12.909Z,115.00
2023-01-03T03:42:12.888Z,117.32
2023-01-03T03:43:12.861Z,118.07
2023-01-03T03:44:12.863Z,120.61
2023-01-03T03:45:12.833Z,123.44
2023-01-03T03:46:12.903Z,126.50
2023-01-03T03:47:12.859Z,128.54
2023-01-03T03:48:12.817Z,135.04
2023-01-03T03:49:12.796Z,142.96
2023-01-03T03:50:12.794Z,151.33
2023-01-03T03:51:12.791Z,159.81
2023-01-03T03:52:12.790Z,166.62
2023-01-03T03:53:12.745Z,174.04
2023-01-03T03:54:12.755Z,180.20
2023-01-03T03:55:12.731Z,185.36
2023-01-03T03:56:12.756Z,189.16
2023-01-03T03:57:12.702Z,195.31
2023-01-03T03:58:12.698Z,198.60
2023-01-03T03:59:12.675Z,201.99
2023-01-03T04:00:12.670Z,205.89
2023-01-03T04:01:12.734Z,207.05
2023-01-03T04:02:12.739Z,209.55
2023-01-03T04:03:12.916Z,213.34
2023-01-03T04:04:12.644Z,215.28
2023-01-03T04:05:12.604Z,219.28
2023-01-03T04:06:12.642Z,222.08
2023-01-03T04:07:12.587Z,221.63
2023-01-03T04:08:12.577Z,222.23
2023-01-03T04:09:12.550Z,221.78
2023-01-03T04:10:12.576Z,221.93
2023-01-03T04:11:12.556Z,217.55
2023-01-03T04:12:12.537Z,214.44
2023-01-03T04:13:12.561Z,210.35
2023-01-03T04:14:12.522Z,207.84
2023-01-03T04:15:12.488Z,205.77
2023-01-03T04:16:12.691Z,206.28
2023-01-03T04:17:12.461Z,204.62
2023-01-03T04:18:12.456Z,202.99
2023-01-03T04:19:12.436Z,204.24
2023-01-03T04:20:12.448Z,203.36
2023-01-03T04:21:18.771Z,207.84
2023-01-03T04:22:13.433Z,210.62
2023-01-03T04:23:12.393Z,214.58
2023-01-03T04:24:12.397Z,219.86
2023-01-03T04:25:12.362Z,224.34
2023-01-03T04:26:12.406Z,229.00
2023-01-03T04:27:12.366Z,232.87
2023-01-03T04:28:12.346Z,235.53
2023-01-03T04:29:12.326Z,238.59
2023-01-03T04:30:12.309Z,241.37
2023-01-03T04:31:12.373Z,245.68
2023-01-03T04:32:12.330Z,249.20
2023-01-03T04:33:12.296Z,253.59
2023-01-03T04:34:12.269Z,255.95
2023-01-03T04:35:12.277Z,258.35
2023-01-03T04:36:12.253Z,261.62
2023-01-03T04:37:12.254Z,263.08
2023-01-03T04:38:12.214Z,265.62
2023-01-03T04:39:12.236Z,269.73
2023-01-03T04:40:12.197Z,271.95
2023-01-03T04:41:12.204Z,273.53
2023-01-03T04:42:12.187Z,275.81
2023-01-03T04:43:12.168Z,277.90
2023-01-03T04:44:12.151Z,280.02
2023-01-03T04:45:12.148Z,280.73
2023-01-03T04:46:12.173Z,282.89
2023-01-03T04:47:12.138Z,286.07
2023-01-03T04:48:12.094Z,286.07
2023-01-03T04:49:12.112Z,289.84
2023-01-03T04:50:12.098Z,291.37
2023-01-03T04:51:12.093Z,291.88
2023-01-03T04:52:12.052Z,294.22
2023-01-03T04:53:12.073Z,296.86
2023-01-03T04:54:12.037Z,296.33
2023-01-03T04:55:12.040Z,296.33
2023-01-03T04:56:12.023Z,293.96
2023-01-03T04:57:12.011Z,292.40
2023-01-03T04:58:11.978Z,290.35
2023-01-03T04:59:11.998Z,286.57
2023-01-03T05:00:11.968Z,279.54
2023-01-03T05:01:12.068Z,273.98
2023-01-03T05:02:12.061Z,267.77
2023-01-03T05:03:11.945Z,260.59
2023-01-03T05:04:11.994Z,254.38
2023-01-03T05:05:11.911Z,246.60
2023-01-03T05:06:11.901Z,240.32
2023-01-03T05:07:11.903Z,232.87
2023-01-03T05:08:11.866Z,224.34
2023-01-03T05:09:11.881Z,216.98
2023-01-03T05:10:11.844Z,211.97
2023-01-03T05:11:11.841Z,204.62
2023-01-03T05:12:11.825Z,197.76
2023-01-03T05:13:11.824Z,190.80
2023-01-03T05:14:14.517Z,185.14
2023-01-03T05:15:11.820Z,181.36
2023-01-03T05:16:11.852Z,176.79
2023-01-03T05:17:11.778Z,173.50
2023-01-03T05:18:11.751Z,170.68
2023-01-03T05:19:11.758Z,169.14
2023-01-03T05:20:11.741Z,168.29
2023-01-03T05:21:11.718Z,165.48
2023-01-03T05:22:11.702Z,164.99
2023-01-03T05:23:11.731Z,165.80
2023-01-03T05:24:11.676Z,167.12
2023-01-03T05:25:11.705Z,169.48
2023-01-03T05:26:11.673Z,169.82
2023-01-03T05:27:11.652Z,171.38
2023-01-03T05:28:17.112Z,173.15
2023-01-03T05:29:12.644Z,177.35
2023-01-03T05:30:11.622Z,180.97
2023-01-03T05:31:11.627Z,182.74
2023-01-03T05:32:11.674Z,180.59
2023-01-03T05:33:11.596Z,179.62
2023-01-03T05:34:11.575Z,179.05
2023-01-03T05:35:11.603Z,178.67
2023-01-03T05:36:11.568Z,183.54
2023-01-03T05:37:11.544Z,187.34
2023-01-03T05:38:11.514Z,190.25
2023-01-03T05:39:11.520Z,195.66
2023-01-03T05:40:11.505Z,200.89
2023-01-03T05:41:11.503Z,204.24
2023-01-03T05:42:11.479Z,206.54
2023-01-03T05:43:11.507Z,210.88
2023-01-03T05:44:11.452Z,213.34
2023-01-03T05:45:11.457Z,217.40
2023-01-03T05:46:11.537Z,219.86
2023-01-03T05:47:11.475Z,222.83
2023-01-03T05:48:11.400Z,223.28
2023-01-03T05:49:11.417Z,222.83
2023-01-03T05:50:11.393Z,220.60
2023-01-03T05:51:11.389Z,220.45
2023-01-03T05:52:11.367Z,216.41
2023-01-03T05:53:11.361Z,212.38
2023-01-03T05:54:11.332Z,206.02
2023-01-03T05:55:11.326Z,198.95
2023-01-03T05:56:11.331Z,193.14
2023-01-03T05:57:11.320Z,188.73
2023-01-03T05:58:11.278Z,185.36
2023-01-03T05:59:11.320Z,181.95
2023-01-03T06:00:11.271Z,180.78
2023-01-03T06:01:11.308Z,178.67
2023-01-03T06:02:11.379Z,175.68
2023-01-03T06:03:11.286Z,174.22
2023-01-03T06:04:11.240Z,172.61
2023-01-03T06:05:11.214Z,170.34
2023-01-03T06:06:11.200Z,165.64
2023-01-03T06:07:11.243Z,163.70
2023-01-03T06:08:11.167Z,162.44
2023-01-03T06:09:11.167Z,159.36
2023-01-03T06:10:11.152Z,156.54
2023-01-03T06:11:11.147Z,153.40
2023-01-03T06:12:11.135Z,148.13
2023-01-03T06:13:11.115Z,145.31
2023-01-03T06:14:11.134Z,142.12
2023-01-03T06:15:11.099Z,139.87
2023-01-03T06:16:11.113Z,136.91
2023-01-03T06:17:11.116Z,133.54
2023-01-03T06:18:11.064Z,130.13
2023-01-03T06:19:11.085Z,128.05
2023-01-03T06:20:11.024Z,127.27
2023-01-03T06:21:11.034Z,125.65
2023-01-03T06:22:11.442Z,123.80
2023-01-03T06:23:11.012Z,120.87
2023-01-03T06:24:10.993Z,118.82
2023-01-03T06:25:11.001Z,116.59
2023-01-03T06:26:10.963Z,115.07
2023-01-03T06:27:10.966Z,114.14
2023-01-03T06:28:10.947Z,112.16
2023-01-03T06:29:10.941Z,112.61
2023-01-03T06:30:10.915Z,112.83
2023-01-03T06:31:11.028Z,112.31
2023-01-03T06:32:10.905Z,110.90
2023-01-03T06:33:10.908Z,109.89
2023-01-03T06:34:10.871Z,107.36
2023-01-03T06:35:10.865Z,105.81
2023-01-03T06:36:10.836Z,103.40
2023-01-03T06:37:10.851Z,99.31
2023-01-03T06:38:10.824Z,95.36
2023-01-03T06:39:10.816Z,92.66
2023-01-03T06:40:10.792Z,87.45
2023-01-03T06:41:10.795Z,81.28
2023-01-03T06:42:10.771Z,76.20
2023-01-03T06:43:10.777Z,73.40
2023-01-03T06:44:10.765Z,70.27
2023-01-03T06:45:10.755Z,67.51
2023-01-03T06:46:10.795Z,64.70
2023-01-03T06:47:10.737Z,61.89
2023-01-03T06:48:10.712Z,59.31
2023-01-03T06:49:10.728Z,56.48
2023-01-03T06:50:10.674Z,53.74
2023-01-03T06:51:10.727Z,51.69
2023-01-03T06:52:10.653Z,49.41
2023-01-03T06:53:10.654Z,47.87
2023-01-03T06:54:10.651Z,46.23
2023-01-03T06:55:10.627Z,44.81
2023-01-03T06:56:10.598Z,43.28
2023-01-03T06:57:10.605Z,42.07
2023-01-03T06:58:11.578Z,41.05
2023-01-03T06:59:10.605Z,40.30
2023-01-03T07:00:10.565Z,39.51
2023-01-03T07:01:10.664Z,38.53
2023-01-03T07:02:10.749Z,37.87
2023-01-03T07:03:11.697Z,37.04
2023-01-03T07:04:10.589Z,36.55
2023-01-03T07:05:10.519Z,35.72
2023-01-03T07:06:10.488Z,35.06
2023-01-03T07:07:10.498Z,34.69
2023-01-03T07:08:10.471Z,34.21
2023-01-03T07:09:10.479Z,33.96
2023-01-03T07:10:10.449Z,33.26
2023-01-03T07:11:10.443Z,32.64
2023-01-03T07:12:10.437Z,32.12
2023-01-03T07:13:10.434Z,31.56
2023-01-03T07:14:10.409Z,31.66
2023-01-03T07:15:10.401Z,31.05
2023-01-03T07:16:10.400Z,30.80
2023-01-03T07:17:10.373Z,30.58
2023-01-03T07:18:10.347Z,30.31
2023-01-03T07:19:10.357Z,29.69
2023-01-03T07:20:10.337Z,29.71
2023-01-03T07:21:10.336Z,29.59
2023-01-03T07:22:10.299Z,29.28
2023-01-03T07:23:10.299Z,28.74
2023-01-03T07:24:10.299Z,28.80
2023-01-03T07:25:10.294Z,28.50
2023-01-03T07:26:10.290Z,28.64
2023-01-03T07:27:10.261Z,28.26
2023-01-03T07:28:11.158Z,27.86
2023-01-03T07:29:10.282Z,28.26
2023-01-03T07:30:10.218Z,27.64
2023-01-03T07:31:10.256Z,27.79
2023-01-03T07:32:10.189Z,27.68
2023-01-03T07:33:10.188Z,27.62
2023-01-03T07:34:10.166Z,27.23
2023-01-03T07:35:10.176Z,27.25
2023-01-03T07:36:11.998Z,27.21
2023-01-03T07:37:10.138Z,27.18
2023-01-03T07:38:10.125Z,26.63
2023-01-03T07:39:10.128Z,26.63
2023-01-03T07:40:10.114Z,26.88
2023-01-03T07:41:10.097Z,26.36
2023-01-03T07:42:10.067Z,26.78
2023-01-03T07:43:10.090Z,26.21
2023-01-03T07:44:10.049Z,26.07
2023-01-03T07:45:10.069Z,25.97
2023-01-03T07:46:10.082Z,25.80
2023-01-03T07:47:10.032Z,25.72
2023-01-03T07:48:10.006Z,26.03
2023-01-03T07:49:12.213Z,25.84
2023-01-03T07:50:09.996Z,25.67
2023-01-03T07:51:09.980Z,25.59
2023-01-03T07:52:09.964Z,25.64
2023-01-03T07:53:09.977Z,25.56
2023-01-03T07:54:09.943Z,25.53
2023-01-03T07:55:09.953Z,25.42
2023-01-03T07:56:13.183Z,25.51
2023-01-03T07:57:09.924Z,25.45
2023-01-03T07:58:09.889Z,25.44
2023-01-03T07:59:09.916Z,25.38
2023-01-03T08:00:09.877Z,25.65
2023-01-03T08:01:09.960Z,25.58
2023-01-03T08:02:09.938Z,25.41
2023-01-03T08:03:11.439Z,25.83
2023-01-03T08:04:09.842Z,25.55
2023-01-03T08:05:09.869Z,25.75
2023-01-03T08:06:09.802Z,25.76
2023-01-03T08:07:09.809Z,25.81
2023-01-03T08:08:09.782Z,26.02
2023-01-03T08:09:09.797Z,26.34
2023-01-03T08:10:10.066Z,26.75
2023-01-03T08:11:09.748Z,27.37
2023-01-03T08:12:09.717Z,28.10
2023-01-03T08:13:09.727Z,29.10
2023-01-03T08:14:09.708Z,30.09
2023-01-03T08:15:09.719Z,31.37
2023-01-03T08:16:09.728Z,32.87
2023-01-03T08:17:09.716Z,34.32
2023-01-03T08:18:09.656Z,36.21
2023-01-03T08:19:09.697Z,38.11
2023-01-03T08:20:09.645Z,39.62
2023-01-03T08:21:09.650Z,41.25
2023-01-03T08:22:09.614Z,42.97
2023-01-03T08:23:09.619Z,44.19
2023-01-03T08:24:09.600Z,45.73
2023-01-03T08:25:09.598Z,46.49
2023-01-03T08:26:09.579Z,47.19
2023-01-03T08:27:09.581Z,47.30
2023-01-03T08:28:09.542Z,46.96
2023-01-03T08:29:09.556Z,46.23
2023-01-03T08:30:09.520Z,45.58
2023-01-03T08:31:09.590Z,44.85
2023-01-03T08:32:09.500Z,44.47
2023-01-03T08:33:09.496Z,44.24
2023-01-03T08:34:16.065Z,44.71
2023-01-03T08:35:10.470Z,45.09
2023-01-03T08:36:09.460Z,43.92
2023-01-03T08:37:09.453Z,43.11
2023-01-03T08:38:09.413Z,43.78
2023-01-03T08:39:09.423Z,44.62
2023-01-03T08:40:09.397Z,45.00
2023-01-03T08:41:09.408Z,46.90
